aviador You're here:

EGUN Decoded Metar

MILDENHALL in ENGLAND
Report Time2017-05-24 17:13:00
UTC Time2017-05-24 17:52:41
Flight Rules vfr VFR
Wind050° at 04 kt
W.Decomp.*RWY 11: 2.1 kt HW 3.4 kt LCW
W.Rank050° ranks 28
Current wind is below 050° avg. (6.4)
Visibility9999 m
Phenomena:N/A
Clouds:Scattered 047 Hf
Overcast 055 Hf
Expected CloudBase > 3,200 ft AGL from Temp-Dew spread
Ceiling5,500 ft
Temp24°C (ISA +9)
Dew Point16°C (61% RH)
QNH1024 hPa
Density Alt958 ft
Elevation33 ft
Report Wrong Elevation
Raw Report
EGUN 241713Z AUTO 05004KT 9999 SCT047 OVC055 24/16 A3025 RMK AO2
SLP247=

Extra information for EGUN:More info

Metar Taf Metar & Taf Last 4 Metars F.Rules Stats Wind Profile Meteogram Temp Stats Airport Information Weather charts Add Link Nearby VenuesMetar ALERT Operation Metar Decoded Social comments